Time;durP1;ratioP1;P1;durP2;ratioP2;P2;SDS_P1;SDS_P2;PMS_P1;PMS_P2;Temp;Humidity;BMP_temperature;BMP_pressure;BME280_temperature;BME280_humidity;BME280_pressure;Samples;Min_cycle;Max_cycle;Signal;HPM_P1;HPM_P2
2023/01/17 00:01:28;;;;;;;;;;;;;;;18.61;44.60;97918.25;5131780;28;20393;-56
2023/01/17 00:09:55;;;;;;;;;;;;;;;18.59;44.59;97937.91;5136492;27;19927;-56
2023/01/17 00:12:10;;;;;;;;;;;;;;;18.60;44.73;97949.72;5136257;27;20359;-55
2023/01/17 00:14:35;;;;;;;;;;;;;;;18.58;44.65;97947.31;5152057;27;19930;-56
2023/01/17 00:17:01;;;;;;;;;;;;;;;18.59;44.59;97950.88;5151526;27;19938;-56
2023/01/17 01:35:48;;;;;;;;;;;;;;;18.54;44.54;98079.50;5149202;27;19958;-53
2023/01/17 01:38:14;;;;;;;;;;;;;;;18.55;44.58;98085.81;5148565;27;19977;-53
2023/01/17 01:40:41;;;;;;;;;;;;;;;18.55;44.64;98097.63;5167729;27;19922;-53
2023/01/17 01:43:07;;;;;;;;;;;;;;;18.55;44.73;98103.16;5167523;27;19923;-53
2023/01/17 01:45:33;;;;;;;;;;;;;;;18.55;44.49;98116.13;5148586;27;20151;-52
2023/01/17 01:48:01;;;;;;;;;;;;;;;18.54;44.51;98117.28;5167471;27;20296;-52
2023/01/17 01:50:27;;;;;;;;;;;;;;;18.54;44.75;98118.09;5148536;27;19923;-52
2023/01/17 01:52:53;;;;;;;;;;;;;;;18.54;44.63;98125.53;5144954;27;19945;-52
2023/01/17 01:55:23;;;;;;;;;;;;;;;18.54;44.46;98126.34;5153150;27;19927;-52
2023/01/17 01:57:49;;;;;;;;;;;;;;;18.54;44.71;98126.34;5134620;27;20382;-53
2023/01/17 02:00:16;;;;;;;;;;;;;;;18.54;44.49;98122.78;5134226;27;19972;-53
2023/01/17 02:02:42;;;;;;;;;;;;;;;18.54;44.54;98131.06;5134686;27;19938;-53
2023/01/17 02:05:07;;;;;;;;;;;;;;;18.53;44.70;98134.97;5153409;27;19923;-52
2023/01/17 02:07:35;;;;;;;;;;;;;;;18.54;44.47;98139.31;5153163;27;19923;-52
2023/01/17 02:10:04;;;;;;;;;;;;;;;18.54;44.75;98137.38;5134093;27;19956;-54
2023/01/17 02:12:29;;;;;;;;;;;;;;;18.53;44.65;98144.03;5133840;27;20286;-54
2023/01/17 02:14:55;;;;;;;;;;;;;;;18.54;44.45;98150.34;5152596;27;20389;-54
2023/01/17 02:17:40;;;;;;;;;;;;;;;18.53;44.79;98157.03;5153100;27;20002;-52
2023/01/17 02:23:10;;;;;;;;;;;;;;;18.53;44.82;98159.78;5189610;27;19925;-53
2023/01/17 02:25:41;;;;;;;;;;;;;;;18.53;44.56;98171.59;5173494;27;19923;-53
2023/01/17 02:28:15;;;;;;;;;;;;;;;18.53;44.44;98165.28;5170396;27;19923;-54
2023/01/17 02:30:41;;;;;;;;;;;;;;;18.53;44.67;98171.59;5188231;27;19969;-52
2023/01/17 02:33:14;;;;;;;;;;;;;;;18.53;44.47;98176.31;5188788;27;19926;-55
2023/01/17 02:35:42;;;;;;;;;;;;;;;18.53;44.67;98173.56;5188826;27;19923;-53
2023/01/17 02:38:30;;;;;;;;;;;;;;;18.53;44.35;98176.31;5189140;27;19930;-54
2023/01/17 02:40:58;;;;;;;;;;;;;;;18.52;44.73;98175.50;5173286;27;19962;-52
2023/01/17 02:43:24;;;;;;;;;;;;;;;18.53;44.52;98184.56;5188714;27;19970;-54
2023/01/17 02:45:50;;;;;;;;;;;;;;;18.52;44.59;98199.47;5188946;27;20018;-53
2023/01/17 02:48:16;;;;;;;;;;;;;;;18.53;44.45;98195.59;5188827;27;20252;-53
2023/01/17 02:51:01;;;;;;;;;;;;;;;18.53;44.63;98198.34;5170127;27;19930;-53
2023/01/17 02:53:32;;;;;;;;;;;;;;;18.52;44.46;98203.06;5172969;27;19927;-54
2023/01/17 02:56:08;;;;;;;;;;;;;;;18.52;44.53;98202.25;5170056;27;19987;-54
2023/01/17 02:58:53;;;;;;;;;;;;;;;18.51;44.59;98198.69;5167180;27;20401;-53
2023/01/17 03:01:25;;;;;;;;;;;;;;;18.51;44.68;98197.88;5151670;27;19923;-53
2023/01/17 03:03:56;;;;;;;;;;;;;;;18.52;44.76;98205.00;5149076;27;19930;-53
2023/01/17 03:06:41;;;;;;;;;;;;;;;18.51;44.37;98209.72;5167694;27;19962;-54
2023/01/17 03:09:07;;;;;;;;;;;;;;;18.52;44.44;98218.78;5152073;27;19949;-53
2023/01/17 03:11:32;;;;;;;;;;;;;;;18.51;44.68;98225.44;5167887;27;20451;-52
2023/01/17 03:13:58;;;;;;;;;;;;;;;18.51;44.76;98230.94;5167436;27;19923;-52
2023/01/17 03:16:24;;;;;;;;;;;;;;;18.51;44.67;98226.25;5167264;27;20406;-53
2023/01/17 03:18:52;;;;;;;;;;;;;;;18.50;44.64;98241.19;5148810;27;19923;-53
2023/01/17 03:21:18;;;;;;;;;;;;;;;18.51;44.67;98241.97;5149017;27;19945;-53
2023/01/17 03:23:43;;;;;;;;;;;;;;;18.51;44.71;98253.00;5166893;27;20298;-52
2023/01/17 03:26:09;;;;;;;;;;;;;;;18.51;44.56;98255.75;5167316;27;19923;-53
2023/01/17 03:28:35;;;;;;;;;;;;;;;18.50;44.55;98254.94;5167068;27;20330;-54
2023/01/17 03:31:00;;;;;;;;;;;;;;;18.50;44.71;98249.44;5166858;27;19959;-53
2023/01/17 03:33:26;;;;;;;;;;;;;;;18.49;44.65;98250.59;5158146;27;19923;-53
2023/01/17 03:35:53;;;;;;;;;;;;;;;18.50;44.59;98257.72;5153440;27;20363;-53
2023/01/17 03:38:19;;;;;;;;;;;;;;;18.50;44.67;98249.44;5153281;27;19958;-53
2023/01/17 03:40:44;;;;;;;;;;;;;;;18.49;44.59;98250.59;5153223;27;20393;-53
2023/01/17 03:43:10;;;;;;;;;;;;;;;18.50;44.63;98254.16;5153302;27;19923;-53
2023/01/17 03:45:36;;;;;;;;;;;;;;;18.49;44.64;98245.09;5153188;27;19983;-53
2023/01/17 03:48:01;;;;;;;;;;;;;;;18.49;44.48;98250.59;5152825;27;20014;-53
2023/01/17 03:50:27;;;;;;;;;;;;;;;18.50;44.52;98257.72;5153326;27;19983;-53
2023/01/17 03:52:53;;;;;;;;;;;;;;;18.50;44.37;98251.41;5153317;27;19927;-53
2023/01/17 03:55:18;;;;;;;;;;;;;;;18.50;44.36;98259.66;5152891;27;19923;-53
2023/01/17 03:57:44;;;;;;;;;;;;;;;18.50;44.34;98265.97;5152897;27;19954;-53
2023/01/17 04:00:10;;;;;;;;;;;;;;;18.49;44.41;98264.38;5152865;27;19923;-52
2023/01/17 04:02:35;;;;;;;;;;;;;;;18.50;44.48;98262.41;5152764;27;20009;-53
2023/01/17 04:05:01;;;;;;;;;;;;;;;18.50;44.56;98270.69;5152904;27;19923;-53
2023/01/17 04:07:26;;;;;;;;;;;;;;;18.49;44.59;98275.41;5152843;27;19927;-53
2023/01/17 04:09:52;;;;;;;;;;;;;;;18.49;44.55;98272.63;5133959;27;20378;-53
2023/01/17 04:12:18;;;;;;;;;;;;;;;18.50;44.41;98276.19;5157898;27;19922;-53
2023/01/17 04:14:44;;;;;;;;;;;;;;;18.49;44.59;98280.09;5173713;27;20236;-53
2023/01/17 04:17:10;;;;;;;;;;;;;;;18.49;44.68;98277.34;5173692;27;19930;-52
2023/01/17 04:19:36;;;;;;;;;;;;;;;18.48;44.31;98273.78;5138808;27;19924;-53
2023/01/17 04:22:01;;;;;;;;;;;;;;;18.48;44.62;98279.31;5131426;28;20374;-53
2023/01/17 04:24:27;;;;;;;;;;;;;;;18.47;44.45;98274.91;5148679;27;19923;-52
2023/01/17 04:26:52;;;;;;;;;;;;;;;18.49;44.52;98286.41;5152418;27;19923;-53
2023/01/17 04:29:18;;;;;;;;;;;;;;;18.48;44.41;98279.31;5146582;27;19926;-54
2023/01/17 04:31:45;;;;;;;;;;;;;;;18.48;44.58;98272.97;5131745;28;20251;-53
2023/01/17 04:34:10;;;;;;;;;;;;;;;18.48;44.62;98278.47;5131805;28;19928;-54
2023/01/17 04:36:36;;;;;;;;;;;;;;;18.49;44.51;98293.88;5131280;28;19924;-53
2023/01/17 04:39:02;;;;;;;;;;;;;;;18.49;44.59;98291.13;5131780;27;19927;-53
2023/01/17 04:41:27;;;;;;;;;;;;;;;18.48;44.49;98281.22;5131129;27;20256;-53
2023/01/17 04:43:53;;;;;;;;;;;;;;;18.48;44.59;98278.47;5131173;27;19930;-53
2023/01/17 04:46:19;;;;;;;;;;;;;;;18.47;44.58;98279.63;5131162;28;19923;-53
2023/01/17 04:48:44;;;;;;;;;;;;;;;18.48;44.56;98281.22;5131518;27;20290;-52
2023/01/17 04:51:10;;;;;;;;;;;;;;;18.48;44.46;98282.06;5131547;27;20418;-52
2023/01/17 04:53:35;;;;;;;;;;;;;;;18.48;44.30;98272.97;5130798;28;19935;-54
2023/01/17 04:56:01;;;;;;;;;;;;;;;18.47;44.54;98274.13;5131452;28;19928;-53
2023/01/17 04:58:27;;;;;;;;;;;;;;;18.47;44.39;98280.44;5134373;27;20131;-53
2023/01/17 05:00:53;;;;;;;;;;;;;;;18.48;44.65;98281.22;5136116;27;20422;-52
2023/01/17 05:03:19;;;;;;;;;;;;;;;18.47;44.58;98285.94;5131244;28;19923;-53
2023/01/17 05:05:45;;;;;;;;;;;;;;;18.47;44.65;98277.66;5131255;28;19928;-53
2023/01/17 05:08:11;;;;;;;;;;;;;;;18.47;44.42;98285.13;5131223;27;19933;-53
2023/01/17 05:10:36;;;;;;;;;;;;;;;18.46;44.57;98284.34;5131357;27;19931;-53
2023/01/17 05:13:02;;;;;;;;;;;;;;;18.47;44.60;98287.91;5135496;27;20243;-52
2023/01/17 05:15:27;;;;;;;;;;;;;;;18.47;44.59;98293.41;5172689;27;19929;-53
2023/01/17 05:17:53;;;;;;;;;;;;;;;18.47;44.49;98291.44;5148647;27;19923;-53
2023/01/17 05:20:19;;;;;;;;;;;;;;;18.46;44.36;98303.63;5131051;27;19946;-53
2023/01/17 05:22:54;;;;;;;;;;;;;;;18.47;44.57;98313.50;5130548;28;19966;-53
2023/01/17 05:25:20;;;;;;;;;;;;;;;18.46;44.70;98309.13;5126412;27;19923;-53
2023/01/17 05:27:46;;;;;;;;;;;;;;;18.47;44.69;98320.97;5148361;27;19930;-53
2023/01/17 05:30:11;;;;;;;;;;;;;;;18.46;44.66;98311.91;5139318;27;19927;-53
2023/01/17 05:32:37;;;;;;;;;;;;;;;18.47;44.61;98323.72;5130881;28;19938;-52
2023/01/17 05:35:03;;;;;;;;;;;;;;;18.46;44.63;98325.66;5130767;28;20339;-53
2023/01/17 05:37:28;;;;;;;;;;;;;;;18.46;44.61;98331.19;5130801;28;19927;-52
2023/01/17 05:39:54;;;;;;;;;;;;;;;18.46;44.59;98325.66;5130593;27;20427;-53
2023/01/17 05:42:19;;;;;;;;;;;;;;;18.46;44.35;98324.88;5130697;28;19930;-52
2023/01/17 05:44:45;;;;;;;;;;;;;;;18.46;44.36;98324.88;5130850;28;20436;-54
2023/01/17 05:47:10;;;;;;;;;;;;;;;18.47;44.58;98331.97;5130351;28;20085;-53
2023/01/17 05:49:37;;;;;;;;;;;;;;;18.46;44.59;98328.44;5129675;27;19927;-53
2023/01/17 05:52:03;;;;;;;;;;;;;;;18.46;44.61;98322.13;5130651;28;19988;-52
2023/01/17 05:54:28;;;;;;;;;;;;;;;18.45;44.50;98326.81;5130328;28;19943;-53
2023/01/17 05:56:54;;;;;;;;;;;;;;;18.45;44.58;98329.59;5129946;27;19928;-52
2023/01/17 05:59:20;;;;;;;;;;;;;;;18.46;44.44;98330.38;5120381;27;19937;-53
2023/01/17 06:02:01;;;;;;;;;;;;;;;18.46;44.41;98331.19;5129443;28;19972;-54
2023/01/17 06:04:27;;;;;;;;;;;;;;;18.45;44.66;98337.84;5129408;28;19924;-52
2023/01/17 06:06:52;;;;;;;;;;;;;;;18.46;44.60;98335.91;5129942;28;19924;-53
2023/01/17 06:09:18;;;;;;;;;;;;;;;18.44;44.52;98330.72;5129819;27;19923;-52
2023/01/17 06:11:43;;;;;;;;;;;;;;;18.45;44.38;98335.09;5130723;27;19935;-52
2023/01/17 06:14:09;;;;;;;;;;;;;;;18.45;44.57;98343.34;5171721;27;19923;-54
2023/01/17 06:16:35;;;;;;;;;;;;;;;18.45;44.59;98348.06;5171948;27;19941;-53
2023/01/17 06:19:00;;;;;;;;;;;;;;;18.45;44.60;98350.81;5147773;27;20306;-53
2023/01/17 06:21:27;;;;;;;;;;;;;;;18.45;44.59;98348.88;5130139;27;19927;-52
2023/01/17 06:23:53;;;;;;;;;;;;;;;18.45;44.67;98354.38;5110431;28;19969;-53
2023/01/17 06:26:19;;;;;;;;;;;;;;;18.45;44.54;98357.13;5132296;27;19943;-52
2023/01/17 06:28:44;;;;;;;;;;;;;;;18.45;44.53;98353.56;5146208;27;20387;-53
2023/01/17 06:31:10;;;;;;;;;;;;;;;18.44;44.59;98352.78;5131819;27;19971;-53
2023/01/17 06:33:36;;;;;;;;;;;;;;;18.44;44.54;98358.28;5133274;27;19923;-53
2023/01/17 06:36:01;;;;;;;;;;;;;;;18.45;44.31;98367.34;5132999;27;20239;-53
2023/01/17 06:38:28;;;;;;;;;;;;;;;18.44;44.62;98366.56;5118300;27;19927;-52
2023/01/17 06:40:54;;;;;;;;;;;;;;;18.45;44.54;98370.13;5137366;27;20036;-53
2023/01/17 06:43:19;;;;;;;;;;;;;;;18.45;44.53;98370.13;5149560;27;20363;-53
2023/01/17 06:45:45;;;;;;;;;;;;;;;18.44;44.30;98371.25;5147466;27;19938;-52
2023/01/17 06:48:11;;;;;;;;;;;;;;;18.44;44.55;98368.50;5144459;27;19923;-53
2023/01/17 06:50:36;;;;;;;;;;;;;;;18.44;44.33;98365.75;5142540;27;19933;-53
2023/01/17 06:53:03;;;;;;;;;;;;;;;18.43;44.48;98364.91;5122734;27;19927;-52
2023/01/17 06:55:29;;;;;;;;;;;;;;;18.43;44.90;98367.69;5145805;27;19938;-53
2023/01/17 06:57:55;;;;;;;;;;;;;;;18.43;44.40;98373.19;5136722;27;19923;-53
2023/01/17 07:00:20;;;;;;;;;;;;;;;18.43;44.49;98378.69;5137222;27;19935;-54
2023/01/17 07:02:48;;;;;;;;;;;;;;;18.44;44.53;98382.28;5132223;27;20361;-54
2023/01/17 07:05:15;;;;;;;;;;;;;;;18.43;44.42;98380.66;5146202;27;20287;-53
2023/01/17 07:07:40;;;;;;;;;;;;;;;18.47;44.53;98390.66;5140935;27;19955;-54
2023/01/17 07:10:06;;;;;;;;;;;;;;;18.47;44.84;98379.63;5145384;27;20332;-53
2023/01/17 07:12:31;;;;;;;;;;;;;;;18.48;44.85;98383.19;5151800;27;19942;-53
2023/01/17 07:14:57;;;;;;;;;;;;;;;18.46;44.87;98388.25;5145673;27;19931;-52
2023/01/17 07:17:22;;;;;;;;;;;;;;;18.46;44.89;98388.25;5146145;27;20377;-53
2023/01/17 07:19:48;;;;;;;;;;;;;;;18.46;44.70;98380.00;5145264;27;19930;-53
2023/01/17 07:22:14;;;;;;;;;;;;;;;18.46;44.68;98378.03;5147955;27;19931;-52
2023/01/17 07:24:39;;;;;;;;;;;;;;;18.46;44.71;98394.56;5144316;27;19927;-53
2023/01/17 07:27:05;;;;;;;;;;;;;;;18.47;44.74;98384.34;5149589;27;19927;-53
2023/01/17 07:29:31;;;;;;;;;;;;;;;18.46;44.86;98391.81;5146927;27;20408;-53
2023/01/17 07:31:56;;;;;;;;;;;;;;;18.47;44.59;98384.34;5146002;27;19927;-54
2023/01/17 07:34:22;;;;;;;;;;;;;;;18.47;44.89;98382.41;5144645;27;19931;-53
2023/01/17 07:36:48;;;;;;;;;;;;;;;18.47;44.67;98384.34;5145890;27;19927;-52
2023/01/17 07:39:14;;;;;;;;;;;;;;;18.47;44.84;98387.91;5140064;27;20562;-53
2023/01/17 07:41:40;;;;;;;;;;;;;;;18.48;44.64;98388.72;5137435;27;19931;-52
2023/01/17 07:44:06;;;;;;;;;;;;;;;18.53;44.56;98383.03;5142027;27;19927;-53
2023/01/17 07:46:32;;;;;;;;;;;;;;;18.53;45.01;98383.81;5146034;27;19958;-53
2023/01/17 07:48:57;;;;;;;;;;;;;;;18.51;45.15;98388.03;5147409;27;20391;-53
2023/01/17 07:51:23;;;;;;;;;;;;;;;18.60;44.77;98391.53;5133567;27;20406;-57
2023/01/17 07:53:48;;;;;;;;;;;;;;;18.62;44.38;98388.44;5141241;27;19992;-57
2023/01/17 07:56:17;;;;;;;;;;;;;;;18.66;45.79;98383.88;5133785;27;20390;-54
2023/01/17 07:58:42;;;;;;;;;;;;;;;18.64;45.75;98383.41;5129640;27;19932;-53
2023/01/17 08:01:09;;;;;;;;;;;;;;;18.68;44.84;98387.09;5126445;27;19979;-59
2023/01/17 08:03:38;;;;;;;;;;;;;;;18.72;43.78;98390.81;5132786;27;19931;-58
2023/01/17 08:06:04;;;;;;;;;;;;;;;18.69;43.44;98391.44;5130414;27;19934;-59
2023/01/17 08:08:30;;;;;;;;;;;;;;;18.72;45.10;98383.34;5109683;27;19930;-53
2023/01/17 08:10:56;;;;;;;;;;;;;;;18.69;45.89;98386.75;5132275;27;19931;-54
2023/01/17 08:13:21;;;;;;;;;;;;;;;18.68;46.07;98384.31;5111103;27;19987;-54
2023/01/17 08:15:47;;;;;;;;;;;;;;;18.64;46.20;98381.44;5111930;27;19930;-54
2023/01/17 08:18:13;;;;;;;;;;;;;;;18.64;46.13;98395.22;5142230;27;20021;-54
2023/01/17 08:20:39;;;;;;;;;;;;;;;18.64;46.09;98388.91;5118540;27;19927;-54
2023/01/17 08:23:04;;;;;;;;;;;;;;;18.64;46.13;98388.91;5132382;27;19939;-54
2023/01/17 08:25:31;;;;;;;;;;;;;;;18.63;46.30;98388.09;5131632;27;20179;-54
2023/01/17 08:27:57;;;;;;;;;;;;;;;18.62;46.15;98388.44;5133320;27;19931;-54
2023/01/17 08:30:23;;;;;;;;;;;;;;;18.63;46.31;98395.56;5133805;27;19950;-54
2023/01/17 08:32:49;;;;;;;;;;;;;;;18.62;45.95;98392.00;5113289;27;19942;-54
2023/01/17 08:35:14;;;;;;;;;;;;;;;18.63;46.03;98395.56;5129449;27;19979;-54
2023/01/17 08:37:40;;;;;;;;;;;;;;;18.63;46.14;98396.38;5139790;27;19958;-54
2023/01/17 08:40:06;;;;;;;;;;;;;;;18.63;45.98;98395.56;5135209;27;19935;-55
2023/01/17 08:42:38;;;;;;;;;;;;;;;18.62;46.04;98397.53;5139802;27;19945;-54
2023/01/17 08:45:04;;;;;;;;;;;;;;;18.65;44.55;98396.03;5139581;27;19927;-55
2023/01/17 08:47:30;;;;;;;;;;;;;;;18.69;44.78;98403.31;5135586;27;20013;-58
2023/01/17 08:49:58;;;;;;;;;;;;;;;18.71;44.82;98400.22;5134538;27;20370;-57
2023/01/17 08:52:23;;;;;;;;;;;;;;;18.71;45.08;98403.00;5130458;27;20371;-58
2023/01/17 08:54:50;;;;;;;;;;;;;;;18.72;44.95;98399.88;5134332;27;19968;-59
2023/01/17 08:57:15;;;;;;;;;;;;;;;18.74;44.49;98402.31;5134245;27;20027;-59
2023/01/17 08:59:41;;;;;;;;;;;;;;;18.72;44.83;98407.34;5110344;27;19927;-57
2023/01/17 09:02:13;;;;;;;;;;;;;;;18.73;44.81;98400.69;5132096;27;20441;-57
2023/01/17 09:04:43;;;;;;;;;;;;;;;18.72;45.10;98390.81;5127173;27;20027;-58
2023/01/17 09:07:08;;;;;;;;;;;;;;;18.71;45.37;98398.28;5108172;27;19954;-57
2023/01/17 09:09:34;;;;;;;;;;;;;;;18.72;45.12;98399.06;5129126;27;19931;-56
2023/01/17 09:11:59;;;;;;;;;;;;;;;18.72;45.42;98401.84;5127610;27;19931;-56
2023/01/17 09:14:25;;;;;;;;;;;;;;;18.70;45.34;98396.66;5108812;27;20512;-57
2023/01/17 09:16:50;;;;;;;;;;;;;;;18.71;45.48;98403.78;5136668;27;19926;-58
2023/01/17 09:19:16;;;;;;;;;;;;;;;18.71;45.60;98405.75;5126884;27;19957;-56
2023/01/17 09:21:42;;;;;;;;;;;;;;;18.72;45.61;98410.09;5130135;27;19927;-57
2023/01/17 09:24:07;;;;;;;;;;;;;;;18.71;45.30;98403.78;5143314;27;19927;-56
2023/01/17 09:26:34;;;;;;;;;;;;;;;18.74;44.54;98408.63;5133416;27;19949;-58
2023/01/17 09:28:59;;;;;;;;;;;;;;;18.77;44.38;98405.19;5119613;27;19927;-61
2023/01/17 09:31:26;;;;;;;;;;;;;;;18.78;45.04;98409.56;5131173;27;20025;-56
2023/01/17 09:33:52;;;;;;;;;;;;;;;18.79;45.25;98411.19;5127631;27;19937;-57
2023/01/17 09:36:18;;;;;;;;;;;;;;;18.78;43.83;98415.09;5104905;27;19982;-57
2023/01/17 09:38:44;;;;;;;;;;;;;;;18.77;43.41;98415.41;5109781;27;19931;-56
2023/01/17 09:41:17;;;;;;;;;;;;;;;18.48;38.59;98417.09;5113770;27;20362;-58
2023/01/17 09:43:45;;;;;;;;;;;;;;;18.67;43.25;98424.06;5122028;27;19923;-57
2023/01/17 09:46:13;;;;;;;;;;;;;;;18.60;39.64;98419.09;5126221;27;19938;-56
2023/01/17 09:48:39;;;;;;;;;;;;;;;18.56;41.70;98418.16;5118288;27;20034;-57
2023/01/17 09:51:07;;;;;;;;;;;;;;;18.67;42.34;98422.13;5139521;27;19931;-60
2023/01/17 09:53:33;;;;;;;;;;;;;;;18.71;42.87;98416.78;5110001;27;20036;-59
2023/01/17 09:56:08;;;;;;;;;;;;;;;18.73;43.62;98420.78;5128171;27;19934;-59
2023/01/17 09:58:42;;;;;;;;;;;;;;;18.75;43.81;98425.97;5134733;27;19977;-59
2023/01/17 10:01:11;;;;;;;;;;;;;;;18.82;43.98;98422.66;5134447;27;19963;-45
2023/01/17 10:03:41;;;;;;;;;;;;;;;18.79;44.10;98430.47;5112384;27;19962;-45
2023/01/17 10:06:27;;;;;;;;;;;;;;;18.77;44.43;98430.00;5134763;27;19927;-46
2023/01/17 10:09:06;;;;;;;;;;;;;;;18.78;44.08;98433.56;5121419;27;19930;-45
2023/01/17 10:11:33;;;;;;;;;;;;;;;18.78;44.21;98439.91;5135178;27;20050;-45
2023/01/17 10:14:05;;;;;;;;;;;;;;;18.78;44.52;98439.06;5141588;27;19931;-45
2023/01/17 10:16:48;;;;;;;;;;;;;;;18.78;44.49;98442.66;5137904;27;19966;-45
2023/01/17 10:19:18;;;;;;;;;;;;;;;18.78;44.43;98439.06;5138754;27;19930;-45
2023/01/17 10:22:04;;;;;;;;;;;;;;;18.78;44.52;98448.19;5137097;27;19967;-46
2023/01/17 10:24:50;;;;;;;;;;;;;;;18.77;44.44;98443.78;5127507;27;20453;-45
2023/01/17 10:27:18;;;;;;;;;;;;;;;18.78;44.56;98444.59;5122488;27;19954;-45
2023/01/17 10:29:43;;;;;;;;;;;;;;;18.78;43.68;98437.16;5135980;27;19930;-47
2023/01/17 10:32:09;;;;;;;;;;;;;;;18.78;44.51;98439.91;5131455;27;19927;-45
2023/01/17 10:34:36;;;;;;;;;;;;;;;18.78;44.79;98433.56;5137141;27;20353;-48
2023/01/17 10:37:10;;;;;;;;;;;;;;;18.78;44.44;98439.91;5126107;27;19927;-46
2023/01/17 10:39:35;;;;;;;;;;;;;;;18.49;41.50;98437.19;5107239;27;19927;-47
2023/01/17 10:42:04;;;;;;;;;;;;;;;18.65;40.79;98434.63;5128961;27;19927;-46
2023/01/17 10:44:32;;;;;;;;;;;;;;;18.70;41.04;98427.00;5138679;27;19927;-46
2023/01/17 10:47:17;;;;;;;;;;;;;;;18.75;41.03;98429.53;5132695;27;20370;-44
2023/01/17 10:49:45;;;;;;;;;;;;;;;18.76;42.06;98438.63;5117997;27;19966;-45
2023/01/17 10:52:16;;;;;;;;;;;;;;;18.76;43.14;98436.66;5120230;27;20035;-44
2023/01/17 10:54:46;;;;;;;;;;;;;;;18.79;43.56;98440.72;5139907;27;19931;-51
2023/01/17 10:57:12;;;;;;;;;;;;;;;18.78;43.85;98434.38;5144823;27;20193;-45
2023/01/17 10:59:38;;;;;;;;;;;;;;;18.79;43.41;98435.19;5123626;27;19934;-46
2023/01/17 11:02:09;;;;;;;;;;;;;;;18.79;43.34;98432.44;5140460;27;19927;-45
2023/01/17 11:04:35;;;;;;;;;;;;;;;18.80;41.92;98423.81;5140505;27;19927;-47
2023/01/17 11:07:10;;;;;;;;;;;;;;;18.82;40.81;98419.91;5138251;27;20291;-45
2023/01/17 11:09:36;;;;;;;;;;;;;;;18.81;41.04;98424.63;5120427;27;19975;-45
2023/01/17 11:12:02;;;;;;;;;;;;;;;18.82;40.64;98415.19;5138294;27;20406;-45
2023/01/17 11:14:29;;;;;;;;;;;;;;;18.81;40.54;98408.06;5140730;27;19927;-45
2023/01/17 11:17:03;;;;;;;;;;;;;;;18.81;41.54;98413.59;5139723;27;19927;-44
2023/01/17 11:19:30;;;;;;;;;;;;;;;18.81;43.11;98416.34;5124647;27;20195;-47
2023/01/17 11:21:57;;;;;;;;;;;;;;;18.81;39.83;98408.06;5135036;27;20656;-46
2023/01/17 11:24:29;;;;;;;;;;;;;;;18.61;35.74;98411.63;5137592;27;19934;-56
2023/01/17 11:26:54;;;;;;;;;;;;;;;18.73;37.21;98407.00;5123008;27;20401;-57
2023/01/17 11:29:29;;;;;;;;;;;;;;;18.79;37.52;98402.91;5144816;27;19933;-56
2023/01/17 11:31:55;;;;;;;;;;;;;;;18.73;36.47;98392.41;5120203;27;20379;-58
2023/01/17 11:34:22;;;;;;;;;;;;;;;18.61;34.52;98395.09;5124462;27;19968;-46
2023/01/17 11:36:49;;;;;;;;;;;;;;;18.77;38.11;98407.13;5141900;27;19943;-48
2023/01/17 11:39:20;;;;;;;;;;;;;;;18.80;40.38;98400.94;5144556;27;19988;-45
2023/01/17 11:41:47;;;;;;;;;;;;;;;18.82;41.03;98401.41;5141781;27;19931;-46
2023/01/17 11:44:20;;;;;;;;;;;;;;;18.86;39.76;98394.06;5118387;27;19927;-46
2023/01/17 11:46:46;;;;;;;;;;;;;;;18.83;39.47;98378.22;5127809;27;20014;-46
2023/01/17 11:49:27;;;;;;;;;;;;;;;18.86;40.90;98396.03;5130798;27;19946;-45
2023/01/17 11:51:55;;;;;;;;;;;;;;;18.87;40.50;98390.19;5114838;27;19966;-46
2023/01/17 11:54:28;;;;;;;;;;;;;;;18.87;38.73;98387.44;5131744;27;19965;-49
2023/01/17 11:56:57;;;;;;;;;;;;;;;18.88;38.38;98385.47;5115149;27;20444;-45
2023/01/17 11:59:23;;;;;;;;;;;;;;;18.87;38.78;98381.91;5134440;27;19927;-46
2023/01/17 12:01:54;;;;;;;;;;;;;;;18.88;38.17;98380.75;5136293;27;20033;-46
2023/01/17 12:04:40;;;;;;;;;;;;;;;18.88;39.18;98379.97;5137179;27;19969;-48
2023/01/17 12:10:06;;;;;;;;;;;;;;;18.86;39.64;98372.00;5152922;27;19945;-46
2023/01/17 12:15:42;;;;;;;;;;;;;;;18.86;41.54;98373.97;5122159;27;20020;-43
2023/01/17 12:18:29;;;;;;;;;;;;;;;18.87;41.73;98375.56;5119770;27;19934;-43
2023/01/17 12:21:15;;;;;;;;;;;;;;;18.86;42.14;98369.25;5117164;27;20397;-44
2023/01/17 12:23:48;;;;;;;;;;;;;;;18.86;42.05;98371.22;5117945;27;19965;-44
2023/01/17 12:26:26;;;;;;;;;;;;;;;18.86;42.48;98369.25;5134002;27;19986;-43
2023/01/17 12:29:12;;;;;;;;;;;;;;;18.90;42.11;98375.69;5135430;27;19966;-44
2023/01/17 12:31:40;;;;;;;;;;;;;;;18.89;42.05;98365.00;5123021;27;20208;-43
2023/01/17 12:34:17;;;;;;;;;;;;;;;18.88;42.35;98364.22;5136729;27;19930;-42
2023/01/17 12:36:47;;;;;;;;;;;;;;;18.88;42.39;98357.91;5138320;27;20280;-43
2023/01/17 12:39:15;;;;;;;;;;;;;;;18.89;42.49;98356.75;5135385;27;19954;-46
2023/01/17 12:41:57;;;;;;;;;;;;;;;18.88;42.54;98355.13;5134364;27;19927;-43
2023/01/17 12:44:28;;;;;;;;;;;;;;;18.88;42.63;98353.19;5135503;27;20260;-47
2023/01/17 12:46:58;;;;;;;;;;;;;;;18.88;41.52;98355.13;5127594;27;19985;-44
2023/01/17 12:49:31;;;;;;;;;;;;;;;18.89;42.65;98349.28;5108323;27;19928;-45
2023/01/17 12:51:58;;;;;;;;;;;;;;;18.90;42.26;98356.41;5113450;27;19923;-45
2023/01/17 12:54:28;;;;;;;;;;;;;;;18.91;42.75;98349.75;5110438;27;19967;-43
2023/01/17 12:56:58;;;;;;;;;;;;;;;18.90;42.78;98348.13;5135811;27;19954;-45
2023/01/17 12:59:26;;;;;;;;;;;;;;;18.89;42.56;98345.72;5139636;27;20083;-46
2023/01/17 13:01:56;;;;;;;;;;;;;;;18.90;42.85;98348.13;5133355;27;20306;-43
2023/01/17 13:04:24;;;;;;;;;;;;;;;18.90;42.55;98352.84;5122148;27;20365;-44
2023/01/17 13:06:55;;;;;;;;;;;;;;;18.89;42.81;98352.03;5136672;27;19927;-43
2023/01/17 13:09:21;;;;;;;;;;;;;;;18.89;42.28;98352.03;5114409;27;19962;-44
2023/01/17 13:11:49;;;;;;;;;;;;;;;18.90;42.77;98352.84;5139139;27;20461;-43
2023/01/17 13:14:15;;;;;;;;;;;;;;;18.91;42.55;98351.69;5131033;27;19970;-44
2023/01/17 13:16:43;;;;;;;;;;;;;;;18.91;42.37;98346.16;5144632;27;19938;-45
2023/01/17 13:19:22;;;;;;;;;;;;;;;18.90;42.74;98348.13;5139033;27;20216;-45
2023/01/17 13:21:47;;;;;;;;;;;;;;;18.90;42.68;98348.13;5125585;28;20403;-43
2023/01/17 13:24:33;;;;;;;;;;;;;;;18.90;42.90;98353.63;5128969;28;20355;-44
2023/01/17 13:27:06;;;;;;;;;;;;;;;18.91;42.46;98357.19;5115357;28;19944;-45
2023/01/17 13:29:40;;;;;;;;;;;;;;;18.89;42.91;98354.78;5117782;28;19927;-43
2023/01/17 13:32:26;;;;;;;;;;;;;;;18.91;42.82;98359.94;5126360;28;19934;-44
2023/01/17 13:35:11;;;;;;;;;;;;;;;18.90;42.82;98353.63;5115297;28;19982;-46
2023/01/17 13:37:57;;;;;;;;;;;;;;;18.91;42.81;98354.44;5109877;28;19924;-47
2023/01/17 13:40:26;;;;;;;;;;;;;;;18.91;43.14;98357.19;5111640;28;20174;-46
2023/01/17 13:42:55;;;;;;;;;;;;;;;18.90;43.02;98353.63;5129859;28;20067;-46
2023/01/17 13:45:22;;;;;;;;;;;;;;;18.93;42.94;98360.44;5130968;28;19932;-46
2023/01/17 13:47:47;;;;;;;;;;;;;;;18.90;43.08;98356.41;5123106;28;19923;-46
2023/01/17 13:50:33;;;;;;;;;;;;;;;18.91;43.21;98358.03;5116655;27;19951;-47
2023/01/17 13:52:59;;;;;;;;;;;;;;;18.92;43.10;98361.59;5112539;28;20020;-46
2023/01/17 13:55:42;;;;;;;;;;;;;;;18.92;43.19;98358.81;5126907;28;20386;-46
2023/01/17 13:58:25;;;;;;;;;;;;;;;18.91;43.04;98369.06;5129828;28;20379;-48
2023/01/17 14:00:51;;;;;;;;;;;;;;;18.91;42.94;98360.78;5123239;28;19931;-47
2023/01/17 14:03:32;;;;;;;;;;;;;;;18.91;42.96;98360.78;5131033;28;19924;-46
2023/01/17 14:05:58;;;;;;;;;;;;;;;18.91;43.02;98362.72;5120596;28;20324;-47
2023/01/17 14:08:26;;;;;;;;;;;;;;;18.92;43.33;98375.38;5123162;28;19924;-47
2023/01/17 14:10:52;;;;;;;;;;;;;;;18.92;43.30;98376.19;5124504;28;20355;-46
2023/01/17 14:13:37;;;;;;;;;;;;;;;18.90;43.28;98375.69;5127949;28;19934;-46
2023/01/17 14:16:05;;;;;;;;;;;;;;;18.90;43.37;98372.94;5099609;28;19953;-46
2023/01/17 14:18:33;;;;;;;;;;;;;;;18.90;43.03;98367.41;5118565;28;19935;-48
2023/01/17 14:21:06;;;;;;;;;;;;;;;18.90;43.28;98375.69;5106263;28;19938;-47
2023/01/17 14:23:34;;;;;;;;;;;;;;;18.90;42.99;98372.94;5129212;28;19980;-45
2023/01/17 14:26:10;;;;;;;;;;;;;;;18.89;43.05;98371.34;5129750;28;19962;-47